createdAt,value
2017-06-30T00:00:06.609Z,99270.17
2017-06-30T00:02:34.008Z,99270.95
2017-06-30T00:05:01.418Z,99273.97
2017-06-30T00:07:28.819Z,99271.44
2017-06-30T00:09:56.214Z,99273.48
2017-06-30T00:12:23.618Z,99275.69
2017-06-30T00:14:51.010Z,99278.77
2017-06-30T00:17:18.419Z,99274.26
2017-06-30T00:19:45.887Z,99279.34
2017-06-30T00:22:13.302Z,99272.52
2017-06-30T00:24:40.711Z,99272.55
2017-06-30T00:27:08.106Z,99273.62
2017-06-30T00:29:35.514Z,99268.83
2017-06-30T00:32:02.909Z,99271.78
2017-06-30T00:34:30.365Z,99268.53
2017-06-30T00:36:57.766Z,99268.33
2017-06-30T00:39:25.198Z,99279.00
2017-06-30T00:41:52.589Z,99278.31
2017-06-30T00:44:19.990Z,99278.39
2017-06-30T00:46:47.388Z,99281.02
2017-06-30T00:49:14.794Z,99285.98
2017-06-30T00:51:42.231Z,99275.42
2017-06-30T00:54:09.659Z,99282.28
2017-06-30T00:56:37.061Z,99288.55
2017-06-30T00:59:04.451Z,99290.30
2017-06-30T01:01:31.852Z,99293.63
2017-06-30T01:03:59.261Z,99297.16
2017-06-30T01:06:26.678Z,99298.96
2017-06-30T01:08:54.148Z,99298.33
2017-06-30T01:11:21.528Z,99304.27
2017-06-30T01:13:49.007Z,99300.03
2017-06-30T01:16:16.450Z,99299.64
2017-06-30T01:18:43.974Z,99294.00
2017-06-30T01:21:11.371Z,99296.50
2017-06-30T01:23:38.799Z,99300.10
2017-06-30T01:26:06.211Z,99295.19
2017-06-30T01:28:33.617Z,99298.61
2017-06-30T01:31:01.060Z,99290.70
2017-06-30T01:33:28.563Z,99297.05
2017-06-30T01:35:56.118Z,99296.03
2017-06-30T01:38:23.542Z,99300.03
2017-06-30T01:40:50.976Z,99294.51
2017-06-30T01:43:18.363Z,99295.89
2017-06-30T01:45:45.809Z,99301.20
2017-06-30T01:48:13.226Z,99295.53
2017-06-30T01:50:40.623Z,99300.84
2017-06-30T01:53:08.002Z,99301.11
2017-06-30T01:55:35.404Z,99301.84
2017-06-30T01:58:02.837Z,99302.80
2017-06-30T02:00:30.230Z,99304.20
2017-06-30T02:02:57.652Z,99302.39
2017-06-30T02:05:25.070Z,99298.02
2017-06-30T02:07:52.467Z,99298.06
2017-06-30T02:10:19.910Z,99302.18
2017-06-30T02:12:47.307Z,99297.16
2017-06-30T02:15:14.707Z,99297.16
2017-06-30T02:17:42.113Z,99293.25
2017-06-30T02:20:09.530Z,99293.34
2017-06-30T02:22:36.936Z,99298.73
2017-06-30T02:25:04.327Z,99294.46
2017-06-30T02:27:31.730Z,99290.53
2017-06-30T02:29:59.154Z,99288.01
2017-06-30T02:32:26.576Z,99285.44
2017-06-30T02:34:54.006Z,99284.21
2017-06-30T02:37:21.390Z,99282.52
2017-06-30T02:39:48.883Z,99278.50
2017-06-30T02:42:16.299Z,99275.94
2017-06-30T02:44:43.709Z,99284.77
2017-06-30T02:47:11.130Z,99280.11
2017-06-30T02:49:38.519Z,99276.10
2017-06-30T02:52:05.915Z,99276.63
2017-06-30T02:54:33.324Z,99272.82
2017-06-30T02:57:00.727Z,99273.98
2017-06-30T02:59:28.128Z,99277.94
2017-06-30T03:01:55.542Z,99277.66
2017-06-30T03:04:22.935Z,99269.59
2017-06-30T03:06:50.351Z,99276.94
2017-06-30T03:09:17.743Z,99283.14
2017-06-30T03:11:45.186Z,99282.11
2017-06-30T03:14:12.583Z,99281.95
2017-06-30T03:16:40.009Z,99277.06
2017-06-30T03:19:07.428Z,99283.55
2017-06-30T03:21:34.862Z,99281.58
2017-06-30T03:24:02.260Z,99278.52
2017-06-30T03:26:29.659Z,99280.58
2017-06-30T03:28:57.064Z,99285.49
2017-06-30T03:31:24.458Z,99292.71
2017-06-30T03:33:51.870Z,99295.16
2017-06-30T03:36:19.323Z,99297.16
2017-06-30T03:38:46.740Z,99305.17
2017-06-30T03:41:14.171Z,99311.42
2017-06-30T03:43:41.614Z,99304.87
2017-06-30T03:46:09.098Z,99315.36
2017-06-30T03:48:36.540Z,99316.03
2017-06-30T03:51:03.946Z,99317.31
2017-06-30T03:53:31.347Z,99322.39
2017-06-30T03:55:58.748Z,99327.99
2017-06-30T03:58:26.145Z,99330.36
2017-06-30T04:00:53.544Z,99332.98
2017-06-30T04:03:20.944Z,99338.37
2017-06-30T04:05:48.335Z,99342.84
2017-06-30T04:08:15.743Z,99342.84
2017-06-30T04:10:43.133Z,99338.17
2017-06-30T04:13:10.775Z,99335.86
2017-06-30T04:15:38.436Z,99341.30
2017-06-30T04:18:05.834Z,99345.02
2017-06-30T04:20:33.231Z,99346.44
2017-06-30T04:23:00.643Z,99345.78
2017-06-30T04:25:28.102Z,99355.67
2017-06-30T04:27:55.508Z,99351.17
2017-06-30T04:30:22.907Z,99353.72
2017-06-30T04:32:50.327Z,99353.11
2017-06-30T04:35:17.768Z,99359.23
2017-06-30T04:37:45.197Z,99363.54
2017-06-30T04:40:12.613Z,99361.02
2017-06-30T04:42:40.015Z,99359.66
2017-06-30T04:45:07.439Z,99365.58
2017-06-30T04:47:34.915Z,99367.14
2017-06-30T04:50:02.365Z,99363.27
2017-06-30T04:52:29.919Z,99364.72
2017-06-30T04:54:57.366Z,99364.84
2017-06-30T04:57:24.918Z,99372.58
2017-06-30T04:59:52.627Z,99371.57
2017-06-30T05:02:20.060Z,99367.21
2017-06-30T05:04:47.488Z,99364.52
2017-06-30T05:07:14.891Z,99374.52
2017-06-30T05:09:42.284Z,99368.50
2017-06-30T05:12:09.731Z,99367.98
2017-06-30T05:14:37.239Z,99366.00
2017-06-30T05:17:04.739Z,99369.02
2017-06-30T05:19:32.144Z,99369.78
2017-06-30T05:21:59.544Z,99367.69
2017-06-30T05:24:26.943Z,99367.09
2017-06-30T05:26:54.334Z,99370.28
2017-06-30T05:29:21.738Z,99364.39
2017-06-30T05:31:49.169Z,99360.54
2017-06-30T05:34:16.603Z,99363.30
2017-06-30T05:36:44.008Z,99364.75
2017-06-30T05:39:11.430Z,99369.80
2017-06-30T05:41:38.902Z,99374.94
2017-06-30T05:44:06.298Z,99369.23
2017-06-30T05:46:33.786Z,99374.75
2017-06-30T05:49:01.242Z,99374.80
2017-06-30T05:51:28.683Z,99377.06
2017-06-30T05:53:56.083Z,99371.23
2017-06-30T05:56:23.589Z,99378.69
2017-06-30T05:58:51.039Z,99376.80
2017-06-30T06:01:18.441Z,99382.09
2017-06-30T06:03:45.850Z,99385.53
2017-06-30T06:06:13.575Z,99386.01
2017-06-30T06:08:40.994Z,99383.50
2017-06-30T06:11:08.411Z,99386.76
2017-06-30T06:13:35.858Z,99393.69
2017-06-30T06:16:03.255Z,99395.92
2017-06-30T06:18:30.692Z,99396.64
2017-06-30T06:20:58.090Z,99390.25
2017-06-30T06:23:25.514Z,99391.75
2017-06-30T06:25:52.948Z,99391.77
2017-06-30T06:28:20.339Z,99390.58
2017-06-30T06:30:47.750Z,99400.23
2017-06-30T06:33:15.158Z,99397.80
2017-06-30T06:35:42.568Z,99397.87
2017-06-30T06:38:10.050Z,99400.66
2017-06-30T06:40:37.459Z,99400.85
2017-06-30T06:43:04.999Z,99407.53
2017-06-30T06:45:32.399Z,99398.80
2017-06-30T06:47:59.868Z,99402.04
2017-06-30T06:50:27.281Z,99402.75
2017-06-30T06:52:54.719Z,99414.54
2017-06-30T06:55:22.172Z,99414.64
2017-06-30T06:57:49.583Z,99407.91
2017-06-30T07:00:17.199Z,99414.18
2017-06-30T07:02:44.599Z,99415.88
2017-06-30T07:05:12.041Z,99415.60
2017-06-30T07:07:39.454Z,99423.39
2017-06-30T07:10:06.879Z,99419.88
2017-06-30T07:12:34.331Z,99418.95
2017-06-30T07:15:01.752Z,99425.12
2017-06-30T07:17:29.166Z,99419.42
2017-06-30T07:19:56.587Z,99424.98
2017-06-30T07:22:23.990Z,99418.29
2017-06-30T07:24:51.419Z,99417.09
2017-06-30T07:27:18.822Z,99418.37
2017-06-30T07:29:46.263Z,99420.83
2017-06-30T07:32:13.667Z,99421.48
2017-06-30T07:34:41.068Z,99420.52
2017-06-30T07:37:08.477Z,99421.61
2017-06-30T07:39:35.967Z,99425.25
2017-06-30T07:42:03.407Z,99420.31
2017-06-30T07:44:30.810Z,99410.11
2017-06-30T07:46:58.300Z,99415.41
2017-06-30T07:49:25.703Z,99415.06
2017-06-30T07:51:53.111Z,99415.63
2017-06-30T07:54:20.535Z,99410.95
2017-06-30T07:56:47.954Z,99404.25
2017-06-30T07:59:15.383Z,99413.39
2017-06-30T08:01:42.780Z,99405.78
2017-06-30T08:04:10.332Z,99409.97
2017-06-30T08:06:37.810Z,99405.87
2017-06-30T08:09:05.210Z,99407.28
2017-06-30T08:11:32.640Z,99405.95
2017-06-30T08:14:00.042Z,99414.53
2017-06-30T08:16:27.456Z,99406.77
2017-06-30T08:18:54.889Z,99409.33
2017-06-30T08:21:22.287Z,99407.72
2017-06-30T08:23:49.684Z,99410.23
2017-06-30T08:26:17.247Z,99406.12
2017-06-30T08:28:44.651Z,99402.76
2017-06-30T08:31:12.063Z,99400.30
2017-06-30T08:33:39.456Z,99406.41
2017-06-30T08:36:06.854Z,99413.02
2017-06-30T08:38:34.547Z,99414.61
2017-06-30T08:41:01.976Z,99417.90
2017-06-30T08:43:29.528Z,99412.81
2017-06-30T08:45:57.796Z,99417.62
2017-06-30T08:48:25.183Z,99421.91
2017-06-30T08:50:52.635Z,99429.48
2017-06-30T08:53:20.083Z,99426.12
2017-06-30T08:55:47.499Z,99428.63
2017-06-30T08:58:14.955Z,99429.20
2017-06-30T09:00:42.347Z,99431.16
2017-06-30T09:03:09.795Z,99428.23
2017-06-30T09:05:37.229Z,99436.02
2017-06-30T09:08:04.628Z,99433.38
2017-06-30T09:10:32.056Z,99440.87
2017-06-30T09:12:59.509Z,99445.83
2017-06-30T09:15:27.014Z,99454.55
2017-06-30T09:17:54.424Z,99452.60
2017-06-30T09:20:21.843Z,99451.05
2017-06-30T09:22:49.233Z,99454.52
2017-06-30T09:25:16.713Z,99452.20
2017-06-30T09:27:44.099Z,99450.88
2017-06-30T09:30:11.494Z,99458.34
2017-06-30T09:32:38.908Z,99451.16
2017-06-30T09:35:06.351Z,99456.25
2017-06-30T09:37:33.770Z,99459.37
2017-06-30T09:40:01.187Z,99467.40
2017-06-30T09:42:28.611Z,99460.14
2017-06-30T09:44:56.095Z,99465.31
2017-06-30T09:47:23.500Z,99471.41
2017-06-30T09:49:50.943Z,99466.33
2017-06-30T09:52:18.385Z,99477.48
2017-06-30T09:54:45.777Z,99476.34
2017-06-30T09:57:13.199Z,99477.13
2017-06-30T09:59:40.591Z,99483.53
2017-06-30T10:02:08.021Z,99476.55
2017-06-30T10:04:35.496Z,99475.75
2017-06-30T10:07:02.903Z,99477.56
2017-06-30T10:09:30.334Z,99480.05
2017-06-30T10:11:57.733Z,99478.05
2017-06-30T10:14:25.144Z,99488.50
2017-06-30T10:16:52.571Z,99481.96
2017-06-30T10:19:20.055Z,99480.95
2017-06-30T10:21:47.459Z,99489.44
2017-06-30T10:24:14.905Z,99492.05
2017-06-30T10:26:42.363Z,99491.59
2017-06-30T10:29:09.788Z,99500.83
2017-06-30T10:31:37.251Z,99494.55
2017-06-30T10:34:04.728Z,99497.80
2017-06-30T10:36:32.121Z,99498.43
2017-06-30T10:38:59.519Z,99498.67
2017-06-30T10:41:26.931Z,99502.59
2017-06-30T10:43:54.322Z,99500.97
2017-06-30T10:46:21.814Z,99507.05
2017-06-30T10:48:49.344Z,99500.23
2017-06-30T10:51:16.744Z,99505.09
2017-06-30T10:53:44.196Z,99506.74
2017-06-30T10:56:11.624Z,99496.03
2017-06-30T10:58:39.108Z,99492.11
2017-06-30T11:01:06.487Z,99501.07
2017-06-30T11:03:33.935Z,99502.57
2017-06-30T11:06:01.314Z,99505.27
2017-06-30T11:08:28.743Z,99498.19
2017-06-30T11:10:56.223Z,99498.39
2017-06-30T11:13:23.648Z,99505.45
2017-06-30T11:15:51.072Z,99493.39
2017-06-30T11:18:18.476Z,99496.55
2017-06-30T11:20:45.899Z,99499.54
2017-06-30T11:23:13.322Z,99505.35
2017-06-30T11:25:40.759Z,99504.08
2017-06-30T11:28:08.199Z,99508.82
2017-06-30T11:30:35.627Z,99502.12
2017-06-30T11:33:03.028Z,99503.73
2017-06-30T11:35:30.507Z,99511.23
2017-06-30T11:37:57.929Z,99510.16
2017-06-30T11:40:25.411Z,99508.26
2017-06-30T11:42:52.841Z,99512.96
2017-06-30T11:45:20.239Z,99517.27
2017-06-30T11:47:47.639Z,99517.47
2017-06-30T11:50:15.056Z,99516.41
2017-06-30T11:52:42.462Z,99515.27
2017-06-30T11:55:09.887Z,99522.47
2017-06-30T11:57:37.327Z,99518.71
2017-06-30T12:00:04.752Z,99519.54
2017-06-30T12:02:32.215Z,99527.97
2017-06-30T12:04:59.691Z,99517.37
2017-06-30T12:07:27.086Z,99520.02
2017-06-30T12:09:54.494Z,99511.73
2017-06-30T12:12:21.887Z,99511.38
2017-06-30T12:14:49.379Z,99510.56
2017-06-30T12:17:16.771Z,99515.80
2017-06-30T12:19:44.171Z,99525.25
2017-06-30T12:22:11.608Z,99531.76
2017-06-30T12:24:39.009Z,99534.56
2017-06-30T12:27:06.393Z,99528.22
2017-06-30T12:29:33.815Z,99544.68
2017-06-30T12:32:01.195Z,99544.56
2017-06-30T12:34:28.627Z,99554.16
2017-06-30T12:36:56.020Z,99543.48
2017-06-30T12:39:23.420Z,99549.72
2017-06-30T12:41:50.835Z,99531.98
2017-06-30T12:44:18.265Z,99548.73
2017-06-30T12:46:45.659Z,99559.42
2017-06-30T12:49:13.059Z,99554.70
2017-06-30T12:51:40.475Z,99551.97
2017-06-30T12:54:07.892Z,99560.77
2017-06-30T12:56:35.315Z,99560.52
2017-06-30T12:59:02.715Z,99563.81
2017-06-30T13:01:30.144Z,99567.63
2017-06-30T13:03:57.623Z,99572.19
2017-06-30T13:06:25.015Z,99567.08
2017-06-30T13:08:52.444Z,99567.03
2017-06-30T13:11:19.851Z,99570.47
2017-06-30T13:13:47.252Z,99569.64
2017-06-30T13:16:14.688Z,99567.40
2017-06-30T13:18:42.087Z,99568.45
2017-06-30T13:21:09.520Z,99568.02
2017-06-30T13:23:36.992Z,99567.98
2017-06-30T13:26:04.379Z,99562.37
2017-06-30T13:28:31.795Z,99561.03
2017-06-30T13:30:59.255Z,99567.83
2017-06-30T13:33:26.691Z,99567.72
2017-06-30T13:35:54.131Z,99568.62
2017-06-30T13:38:21.527Z,99571.86
2017-06-30T13:40:48.990Z,99582.05
2017-06-30T13:43:16.408Z,99587.44
2017-06-30T13:45:43.847Z,99587.42
2017-06-30T13:48:11.239Z,99588.44
2017-06-30T13:50:38.679Z,99598.00
2017-06-30T13:53:06.083Z,99597.53
2017-06-30T13:55:33.503Z,99602.36
2017-06-30T13:58:01.710Z,99598.84
2017-06-30T14:00:29.162Z,99604.15
2017-06-30T14:02:56.552Z,99605.41
2017-06-30T14:05:24.037Z,99609.19
2017-06-30T14:07:51.420Z,99607.16
2017-06-30T14:10:18.818Z,99608.53
2017-06-30T14:12:46.234Z,99619.53
2017-06-30T14:15:13.646Z,99622.03
2017-06-30T14:17:41.298Z,99620.01
2017-06-30T14:20:08.761Z,99610.96
2017-06-30T14:22:36.226Z,99615.98
2017-06-30T14:25:03.639Z,99613.53
2017-06-30T14:27:31.065Z,99603.73
2017-06-30T14:29:58.491Z,99607.50
2017-06-30T14:32:25.879Z,99608.05
2017-06-30T14:34:53.272Z,99606.09
2017-06-30T14:37:20.678Z,99607.13
2017-06-30T14:39:48.099Z,99611.20
2017-06-30T14:42:15.523Z,99608.68
2017-06-30T14:44:42.923Z,99614.51
2017-06-30T14:47:10.387Z,99619.03
2017-06-30T14:49:37.783Z,99623.55
2017-06-30T14:52:05.188Z,99633.84
2017-06-30T14:54:32.591Z,99636.82
2017-06-30T14:57:00.031Z,99633.92
2017-06-30T14:59:27.544Z,99636.75
2017-06-30T15:01:55.051Z,99644.44
2017-06-30T15:04:22.501Z,99638.75
2017-06-30T15:06:49.954Z,99639.12
2017-06-30T15:09:17.397Z,99639.27
2017-06-30T15:11:44.776Z,99638.95
2017-06-30T15:14:12.223Z,99639.75
2017-06-30T15:16:39.631Z,99646.35
2017-06-30T15:19:07.083Z,99653.27
2017-06-30T15:21:34.475Z,99650.68
2017-06-30T15:24:01.903Z,99655.12
2017-06-30T15:26:29.647Z,99655.34
2017-06-30T15:28:57.087Z,99659.92
2017-06-30T15:31:24.511Z,99657.23
2017-06-30T15:33:51.920Z,99652.20
2017-06-30T15:36:19.336Z,99650.22
2017-06-30T15:38:46.732Z,99643.30
2017-06-30T15:41:14.136Z,99650.91
2017-06-30T15:43:41.560Z,99646.77
2017-06-30T15:46:08.968Z,99656.63
2017-06-30T15:48:36.375Z,99661.64
2017-06-30T15:51:03.811Z,99655.70
2017-06-30T15:53:31.203Z,99657.31
2017-06-30T15:55:58.607Z,99650.30
2017-06-30T15:58:26.019Z,99649.23
2017-06-30T16:00:53.523Z,99646.16
2017-06-30T16:03:20.985Z,99652.20
2017-06-30T16:05:48.370Z,99651.61
2017-06-30T16:08:15.860Z,99651.67
2017-06-30T16:10:43.243Z,99648.86
2017-06-30T16:13:10.756Z,99649.50
2017-06-30T16:15:38.163Z,99647.66
2017-06-30T16:18:05.595Z,99642.09
2017-06-30T16:20:33.031Z,99641.42
2017-06-30T16:23:00.472Z,99634.92
2017-06-30T16:25:27.902Z,99635.99
2017-06-30T16:27:55.286Z,99640.94
2017-06-30T16:30:22.710Z,99641.31
2017-06-30T16:32:50.108Z,99641.23
2017-06-30T16:35:17.508Z,99643.25
2017-06-30T16:37:45.065Z,99637.80
2017-06-30T16:40:12.474Z,99630.64
2017-06-30T16:42:39.879Z,99630.49
2017-06-30T16:45:07.287Z,99625.22
2017-06-30T16:47:34.707Z,99627.03
2017-06-30T16:50:02.115Z,99625.84
2017-06-30T16:52:29.535Z,99627.20
2017-06-30T16:54:56.940Z,99630.59
2017-06-30T16:57:24.342Z,99634.15
2017-06-30T16:59:51.747Z,99639.92
2017-06-30T17:02:19.143Z,99633.88
2017-06-30T17:04:46.572Z,99633.08
2017-06-30T17:07:14.023Z,99640.44
2017-06-30T17:09:41.434Z,99639.36
2017-06-30T17:12:08.844Z,99639.82
2017-06-30T17:14:36.251Z,99645.45
2017-06-30T17:17:03.677Z,99642.70
2017-06-30T17:19:31.870Z,99656.86
2017-06-30T17:21:59.256Z,99657.05
2017-06-30T17:24:26.835Z,99660.78
2017-06-30T17:26:54.228Z,99659.81
2017-06-30T17:29:21.670Z,99666.09
2017-06-30T17:31:49.121Z,99675.70
2017-06-30T17:34:16.575Z,99678.53
2017-06-30T17:36:44.019Z,99680.73
2017-06-30T17:39:11.403Z,99679.11
2017-06-30T17:41:38.843Z,99687.16
2017-06-30T17:44:06.303Z,99685.74
2017-06-30T17:46:33.756Z,99681.20
2017-06-30T17:49:01.177Z,99682.20
2017-06-30T17:51:28.607Z,99685.77
2017-06-30T17:53:56.008Z,99684.94
2017-06-30T17:56:23.494Z,99684.96
2017-06-30T17:58:50.896Z,99688.45
2017-06-30T18:01:18.342Z,99687.95
2017-06-30T18:03:45.739Z,99685.75
2017-06-30T18:06:13.138Z,99685.72
2017-06-30T18:08:40.608Z,99691.75
2017-06-30T18:11:08.052Z,99692.58
2017-06-30T18:13:35.571Z,99704.18
2017-06-30T18:16:03.043Z,99708.55
2017-06-30T18:18:30.467Z,99709.97
2017-06-30T18:20:57.862Z,99710.04
2017-06-30T18:23:25.282Z,99713.10
2017-06-30T18:25:52.773Z,99714.70
2017-06-30T18:28:20.172Z,99712.34
2017-06-30T18:30:47.577Z,99713.48
2017-06-30T18:33:14.959Z,99714.92
2017-06-30T18:35:42.388Z,99714.16
2017-06-30T18:38:09.779Z,99717.63
2017-06-30T18:40:37.231Z,99723.38
2017-06-30T18:43:04.807Z,99727.70
2017-06-30T18:45:32.191Z,99726.68
2017-06-30T18:47:59.711Z,99728.98
2017-06-30T18:50:27.214Z,99723.69
2017-06-30T18:52:54.664Z,99721.58
2017-06-30T18:55:22.067Z,99720.17
2017-06-30T18:57:49.493Z,99721.70
2017-06-30T19:00:16.895Z,99728.05
2017-06-30T19:02:44.395Z,99726.03
2017-06-30T19:05:11.856Z,99726.63
2017-06-30T19:07:39.267Z,99724.92
2017-06-30T19:10:06.726Z,99730.97
2017-06-30T19:12:34.239Z,99730.20
2017-06-30T19:15:01.628Z,99730.89
2017-06-30T19:17:29.022Z,99727.42
2017-06-30T19:19:56.455Z,99729.22
2017-06-30T19:22:23.894Z,99734.78
2017-06-30T19:24:51.298Z,99734.10
2017-06-30T19:27:18.814Z,99735.34
2017-06-30T19:29:46.241Z,99736.52
2017-06-30T19:32:13.674Z,99733.72
2017-06-30T19:34:41.108Z,99737.94
2017-06-30T19:37:08.530Z,99739.22
2017-06-30T19:39:35.987Z,99739.53
2017-06-30T19:42:03.395Z,99740.46
2017-06-30T19:44:30.801Z,99741.70
2017-06-30T19:46:58.211Z,99744.78
2017-06-30T19:49:25.608Z,99743.29
2017-06-30T19:51:53.059Z,99747.97
2017-06-30T19:54:20.439Z,99744.28
2017-06-30T19:56:47.904Z,99745.72
2017-06-30T19:59:15.328Z,99751.15
2017-06-30T20:01:42.720Z,99751.34
2017-06-30T20:04:10.204Z,99750.55
2017-06-30T20:06:37.616Z,99755.19
2017-06-30T20:09:05.080Z,99752.08
2017-06-30T20:11:32.491Z,99759.00
2017-06-30T20:13:59.942Z,99753.97
2017-06-30T20:16:27.346Z,99754.08
2017-06-30T20:18:54.752Z,99755.57
2017-06-30T20:21:22.194Z,99758.61
2017-06-30T20:23:49.605Z,99761.45
2017-06-30T20:26:17.001Z,99767.52
2017-06-30T20:28:44.407Z,99774.39
2017-06-30T20:31:11.822Z,99766.67
2017-06-30T20:33:39.276Z,99766.29
2017-06-30T20:38:40.666Z,99772.14
2017-06-30T20:41:08.075Z,99769.90
2017-06-30T20:43:35.475Z,99769.48
2017-06-30T20:46:02.967Z,99772.39
2017-06-30T20:48:30.384Z,99777.95
2017-06-30T20:50:57.806Z,99778.72
2017-06-30T20:53:25.201Z,99778.05
2017-06-30T20:55:52.599Z,99789.59
2017-06-30T20:58:20.019Z,99794.23
2017-06-30T21:00:47.494Z,99790.30
2017-06-30T21:03:14.894Z,99790.81
2017-06-30T21:05:42.290Z,99784.73
2017-06-30T21:08:09.711Z,99783.19
2017-06-30T21:10:37.108Z,99779.50
2017-06-30T21:13:04.532Z,99785.05
2017-06-30T21:15:32.000Z,99780.59
2017-06-30T21:17:59.384Z,99777.02
2017-06-30T21:20:26.808Z,99776.16
2017-06-30T21:22:54.568Z,99778.84
2017-06-30T21:25:21.988Z,99777.03
2017-06-30T21:27:49.424Z,99776.49
2017-06-30T21:30:16.829Z,99784.12
2017-06-30T21:32:44.221Z,99783.45
2017-06-30T21:35:11.727Z,99776.61
2017-06-30T21:37:39.128Z,99774.76
2017-06-30T21:40:06.563Z,99775.66
2017-06-30T21:42:33.939Z,99773.39
2017-06-30T21:45:01.343Z,99770.53
2017-06-30T21:47:28.750Z,99771.55
2017-06-30T21:49:56.188Z,99776.45
2017-06-30T21:52:23.596Z,99764.56
2017-06-30T21:54:50.992Z,99764.83
2017-06-30T21:57:18.383Z,99768.27
2017-06-30T21:59:45.879Z,99764.16
2017-06-30T22:02:13.289Z,99764.77
2017-06-30T22:04:40.722Z,99764.86
2017-06-30T22:07:08.141Z,99761.73
2017-06-30T22:09:35.540Z,99761.00
2017-06-30T22:12:03.019Z,99759.12
2017-06-30T22:14:30.439Z,99759.73
2017-06-30T22:16:57.842Z,99757.72
2017-06-30T22:19:25.283Z,99755.48
2017-06-30T22:21:52.693Z,99757.14
2017-06-30T22:24:20.107Z,99756.38
2017-06-30T22:26:47.535Z,99746.66
2017-06-30T22:29:14.960Z,99749.02
2017-06-30T22:31:42.391Z,99741.14
2017-06-30T22:34:09.817Z,99742.84
2017-06-30T22:36:37.211Z,99736.59
2017-06-30T22:39:04.634Z,99732.73
2017-06-30T22:41:32.046Z,99734.23
2017-06-30T22:43:59.466Z,99730.21
2017-06-30T22:46:26.908Z,99726.03
2017-06-30T22:48:54.308Z,99721.86
2017-06-30T22:51:21.736Z,99724.64
2017-06-30T22:53:49.136Z,99719.92
2017-06-30T22:56:16.661Z,99716.51
2017-06-30T22:58:44.055Z,99716.66
2017-06-30T23:01:11.463Z,99716.38
2017-06-30T23:03:38.879Z,99716.22
2017-06-30T23:06:06.286Z,99710.86
2017-06-30T23:08:33.691Z,99714.82
2017-06-30T23:11:01.094Z,99716.98
2017-06-30T23:13:28.517Z,99721.00
2017-06-30T23:15:55.933Z,99729.95
2017-06-30T23:18:23.330Z,99728.11
2017-06-30T23:20:50.775Z,99725.94
2017-06-30T23:23:18.173Z,99728.05
2017-06-30T23:25:45.593Z,99737.06
2017-06-30T23:28:12.980Z,99731.84
2017-06-30T23:30:40.415Z,99735.00
2017-06-30T23:33:07.815Z,99730.69
2017-06-30T23:35:35.219Z,99727.31
2017-06-30T23:38:02.623Z,99732.51
2017-06-30T23:40:30.040Z,99736.84
2017-06-30T23:42:57.436Z,99736.11
2017-06-30T23:45:24.833Z,99736.94
2017-06-30T23:47:52.227Z,99736.88
2017-06-30T23:50:19.650Z,99731.59
2017-06-30T23:52:47.062Z,99730.27
2017-06-30T23:55:14.457Z,99730.27
2017-06-30T23:57:41.855Z,99729.25
